Time;durP1;ratioP1;P1;durP2;ratioP2;P2;SDS_P1;SDS_P2;PMS_P1;PMS_P2;Temp;Humidity;BMP_temperature;BMP_pressure;BME280_temperature;BME280_humidity;BME280_pressure;Samples;Min_cycle;Max_cycle;Signal;HPM_P1;HPM_P2
2020/12/08 00:01:23;;;;;;;;;;;;;;;;;;5020674;28;19948;-75
2020/12/08 00:03:50;;;;;;;;;;;;;;;;;;5026926;28;20865;-75
2020/12/08 00:06:16;;;;;;;;;;;;;;;;;;5027925;28;19969;-77
2020/12/08 00:08:43;;;;;;;;;;;;;;;;;;5010249;28;20015;-75
2020/12/08 00:11:09;;;;;;;;;;;;;;;;;;5028643;28;19929;-75
2020/12/08 00:13:36;;;;;;;;;;;;;;;;;;5027972;28;20649;-75
2020/12/08 00:16:02;;;;;;;;;;;;;;;;;;5026047;28;20016;-75
2020/12/08 00:18:29;;;;;;;;;;;;;;;;;;5005358;28;19925;-75
2020/12/08 00:20:55;;;;;;;;;;;;;;;;;;5017174;28;20043;-74
2020/12/08 00:23:22;;;;;;;;;;;;;;;;;;5001133;28;19933;-75
2020/12/08 00:25:49;;;;;;;;;;;;;;;;;;5026889;28;19969;-74
2020/12/08 00:28:15;;;;;;;;;;;;;;;;;;5027148;28;20031;-75
2020/12/08 00:30:42;;;;;;;;;;;;;;;;;;5026777;28;20044;-75
2020/12/08 00:33:08;;;;;;;;;;;;;;;;;;5026629;28;20011;-75
2020/12/08 00:35:35;;;;;;;;;;;;;;;;;;5004768;28;20008;-75
2020/12/08 00:38:01;;;;;;;;;;;;;;;;;;5020974;28;20044;-75
2020/12/08 00:40:28;;;;;;;;;;;;;;;;;;5019321;28;21286;-75
2020/12/08 00:42:54;;;;;;;;;;;;;;;;;;5025186;28;19925;-75
2020/12/08 00:45:21;;;;;;;;;;;;;;;;;;5018228;28;20023;-74
2020/12/08 00:47:48;;;;;;;;;;;;;;;;;;5002410;28;20116;-75
2020/12/08 00:50:14;;;;;;;;;;;;;;;;;;5020213;28;20028;-75
2020/12/08 00:52:41;;;;;;;;;;;;;;;;;;5003245;28;19969;-75
2020/12/08 00:55:07;;;;;;;;;;;;;;;;;;5006567;28;20020;-75
2020/12/08 00:57:34;;;;;;;;;;;;;;;;;;5027754;28;20008;-74
2020/12/08 01:00:00;;;;;;;;;;;;;;;;;;5027374;28;20263;-75
2020/12/08 01:02:27;;;;;;;;;;;;;;;;;;5009301;28;20019;-75
2020/12/08 01:04:53;;;;;;;;;;;;;;;;;;5024128;28;19929;-75
2020/12/08 01:07:20;;;;;;;;;;;;;;;;;;5018029;28;19933;-75
2020/12/08 01:09:46;;;;;;;;;;;;;;;;;;5019049;28;19925;-74
2020/12/08 01:12:13;;;;;;;;;;;;;;;;;;5022993;28;19925;-75
2020/12/08 01:14:40;;;;;;;;;;;;;;;;;;5009508;28;20012;-75
2020/12/08 01:17:06;;;;;;;;;;;;;;;;;;5026807;28;19935;-75
2020/12/08 01:19:33;;;;;;;;;;;;;;;;;;5009714;28;19936;-74
2020/12/08 01:21:59;;;;;;;;;;;;;;;;;;5026355;28;19932;-74
2020/12/08 01:24:26;;;;;;;;;;;;;;;;;;5008840;28;20577;-75
2020/12/08 01:26:53;;;;;;;;;;;;;;;;;;5004814;28;20444;-75
2020/12/08 01:29:21;;;;;;;;;;;;;;;;;;5020364;28;19929;-74
2020/12/08 01:31:48;;;;;;;;;;;;;;;;;;5018914;28;20016;-75
2020/12/08 01:34:14;;;;;;;;;;;;;;;;;;5026001;28;20064;-75
2020/12/08 01:36:41;;;;;;;;;;;;;;;;;;5027492;28;20388;-75
2020/12/08 01:39:08;;;;;;;;;;;;;;;;;;5027433;28;20548;-75
2020/12/08 01:41:34;;;;;;;;;;;;;;;;;;5027094;28;19925;-75
2020/12/08 01:44:01;;;;;;;;;;;;;;;;;;5028545;28;20293;-75
2020/12/08 01:46:27;;;;;;;;;;;;;;;;;;5023663;28;20350;-75
2020/12/08 01:48:54;;;;;;;;;;;;;;;;;;5022645;28;19925;-75
2020/12/08 01:51:21;;;;;;;;;;;;;;;;;;5007043;28;20035;-75
2020/12/08 01:53:47;;;;;;;;;;;;;;;;;;5011375;28;20434;-75
2020/12/08 01:56:14;;;;;;;;;;;;;;;;;;5026351;28;20012;-75
2020/12/08 01:58:40;;;;;;;;;;;;;;;;;;5005565;28;19932;-75
2020/12/08 02:01:08;;;;;;;;;;;;;;;;;;5021754;28;19939;-75
2020/12/08 02:03:35;;;;;;;;;;;;;;;;;;5024258;28;20763;-75
2020/12/08 02:06:01;;;;;;;;;;;;;;;;;;5012667;28;20023;-75
2020/12/08 02:08:28;;;;;;;;;;;;;;;;;;5029474;28;20333;-75
2020/12/08 02:10:54;;;;;;;;;;;;;;;;;;5030035;28;20430;-75
2020/12/08 02:13:21;;;;;;;;;;;;;;;;;;5029393;28;19925;-75
2020/12/08 02:15:48;;;;;;;;;;;;;;;;;;5026570;28;19925;-75
2020/12/08 02:18:14;;;;;;;;;;;;;;;;;;5019815;28;20012;-75
2020/12/08 02:20:41;;;;;;;;;;;;;;;;;;5025342;28;19939;-75
2020/12/08 02:23:07;;;;;;;;;;;;;;;;;;5011510;28;20015;-75
2020/12/08 02:25:34;;;;;;;;;;;;;;;;;;5029990;28;19959;-75
2020/12/08 02:28:00;;;;;;;;;;;;;;;;;;5011960;28;20052;-75
2020/12/08 02:30:27;;;;;;;;;;;;;;;;;;5029638;28;20512;-75
2020/12/08 02:32:53;;;;;;;;;;;;;;;;;;5011804;28;20027;-75
2020/12/08 02:35:20;;;;;;;;;;;;;;;;;;5009473;28;19952;-75
2020/12/08 02:37:46;;;;;;;;;;;;;;;;;;5020911;28;19980;-75
2020/12/08 02:40:13;;;;;;;;;;;;;;;;;;5015455;28;19935;-75
2020/12/08 02:42:39;;;;;;;;;;;;;;;;;;4999351;28;19928;-75
2020/12/08 02:45:06;;;;;;;;;;;;;;;;;;5024098;28;19931;-75
2020/12/08 02:47:33;;;;;;;;;;;;;;;;;;5024708;28;19928;-75
2020/12/08 02:49:59;;;;;;;;;;;;;;;;;;5001977;28;19936;-75
2020/12/08 02:52:26;;;;;;;;;;;;;;;;;;5016252;28;19925;-75
2020/12/08 02:54:53;;;;;;;;;;;;;;;;;;5016755;28;19933;-75
2020/12/08 02:57:19;;;;;;;;;;;;;;;;;;5023550;28;19929;-75
2020/12/08 02:59:46;;;;;;;;;;;;;;;;;;5024146;28;20408;-75
2020/12/08 03:02:14;;;;;;;;;;;;;;;;;;5023044;28;20417;-75
2020/12/08 03:04:40;;;;;;;;;;;;;;;;;;5023982;28;20048;-74
2020/12/08 03:07:07;;;;;;;;;;;;;;;;;;5015247;28;20333;-75
2020/12/08 03:09:33;;;;;;;;;;;;;;;;;;5014969;28;19929;-75
2020/12/08 03:12:00;;;;;;;;;;;;;;;;;;5015653;28;20011;-75
2020/12/08 03:14:26;;;;;;;;;;;;;;;;;;5021275;28;19929;-75
2020/12/08 03:16:53;;;;;;;;;;;;;;;;;;5018743;28;19928;-75
2020/12/08 03:19:19;;;;;;;;;;;;;;;;;;5019060;28;20039;-75
2020/12/08 03:21:46;;;;;;;;;;;;;;;;;;5028994;28;20023;-75
2020/12/08 03:24:12;;;;;;;;;;;;;;;;;;5030748;28;20465;-74
2020/12/08 03:26:39;;;;;;;;;;;;;;;;;;5034703;28;19936;-75
2020/12/08 03:29:06;;;;;;;;;;;;;;;;;;5010786;28;19972;-74
2020/12/08 03:31:32;;;;;;;;;;;;;;;;;;5028886;28;20019;-74
2020/12/08 03:33:59;;;;;;;;;;;;;;;;;;5026828;28;20403;-75
2020/12/08 03:36:26;;;;;;;;;;;;;;;;;;5020387;28;20575;-74
2020/12/08 03:38:53;;;;;;;;;;;;;;;;;;5020213;28;19929;-75
2020/12/08 03:41:20;;;;;;;;;;;;;;;;;;5029035;28;20052;-75
2020/12/08 03:43:46;;;;;;;;;;;;;;;;;;5028448;28;20039;-74
2020/12/08 03:46:13;;;;;;;;;;;;;;;;;;5012137;28;19929;-74
2020/12/08 03:48:39;;;;;;;;;;;;;;;;;;5029017;28;20047;-74
2020/12/08 03:51:06;;;;;;;;;;;;;;;;;;5029328;28;20012;-74
2020/12/08 03:53:32;;;;;;;;;;;;;;;;;;5028732;28;20024;-74
2020/12/08 03:55:59;;;;;;;;;;;;;;;;;;5022443;28;20016;-74
2020/12/08 03:58:25;;;;;;;;;;;;;;;;;;5019439;28;20409;-75
2020/12/08 04:00:52;;;;;;;;;;;;;;;;;;5006089;28;20111;-74
2020/12/08 04:03:19;;;;;;;;;;;;;;;;;;5005156;28;20068;-74
2020/12/08 04:05:46;;;;;;;;;;;;;;;;;;5004289;28;19936;-74
2020/12/08 04:08:12;;;;;;;;;;;;;;;;;;5020064;28;20024;-74
2020/12/08 04:10:39;;;;;;;;;;;;;;;;;;5008090;28;19928;-74
2020/12/08 04:13:06;;;;;;;;;;;;;;;;;;5024455;28;20025;-74
2020/12/08 04:15:33;;;;;;;;;;;;;;;;;;5002543;28;19939;-74
2020/12/08 04:17:59;;;;;;;;;;;;;;;;;;5022324;28;19925;-74
2020/12/08 04:20:26;;;;;;;;;;;;;;;;;;5027540;28;20027;-75
2020/12/08 04:22:52;;;;;;;;;;;;;;;;;;5026097;28;20346;-74
2020/12/08 04:25:19;;;;;;;;;;;;;;;;;;5003591;28;19939;-75
2020/12/08 04:27:48;;;;;;;;;;;;;;;;;;5004374;28;20032;-75
2020/12/08 04:30:15;;;;;;;;;;;;;;;;;;5019881;28;20808;-75
2020/12/08 04:32:41;;;;;;;;;;;;;;;;;;5027301;28;19929;-75
2020/12/08 04:35:08;;;;;;;;;;;;;;;;;;5027437;28;19945;-75
2020/12/08 04:37:34;;;;;;;;;;;;;;;;;;5009998;28;20481;-75
2020/12/08 04:40:01;;;;;;;;;;;;;;;;;;5028160;28;19928;-75
2020/12/08 04:42:27;;;;;;;;;;;;;;;;;;5022198;28;19925;-75
2020/12/08 04:44:54;;;;;;;;;;;;;;;;;;5016655;28;19933;-75
2020/12/08 04:47:21;;;;;;;;;;;;;;;;;;5019339;28;20020;-75
2020/12/08 04:49:48;;;;;;;;;;;;;;;;;;5024682;28;20024;-75
2020/12/08 04:52:14;;;;;;;;;;;;;;;;;;5022267;28;19984;-75
2020/12/08 04:54:41;;;;;;;;;;;;;;;;;;5019264;28;20031;-75
2020/12/08 04:57:07;;;;;;;;;;;;;;;;;;5002899;28;19932;-75
2020/12/08 04:59:38;;;;;;;;;;;;;;;;;;5007698;28;20369;-75
2020/12/08 05:02:04;;;;;;;;;;;;;;;;;;5015010;28;20378;-75
2020/12/08 05:04:31;;;;;;;;;;;;;;;;;;5028477;28;20340;-75
2020/12/08 05:06:57;;;;;;;;;;;;;;;;;;5027189;28;20027;-75
2020/12/08 05:09:26;;;;;;;;;;;;;;;;;;5027657;28;20031;-74
2020/12/08 05:11:53;;;;;;;;;;;;;;;;;;5024899;28;20027;-75
2020/12/08 05:14:19;;;;;;;;;;;;;;;;;;5019017;28;20012;-75
2020/12/08 05:16:46;;;;;;;;;;;;;;;;;;5002475;28;20362;-75
2020/12/08 05:19:12;;;;;;;;;;;;;;;;;;5024749;28;20024;-75
2020/12/08 05:21:39;;;;;;;;;;;;;;;;;;5028604;28;19991;-75
2020/12/08 05:24:05;;;;;;;;;;;;;;;;;;5023886;28;19929;-75
2020/12/08 05:26:32;;;;;;;;;;;;;;;;;;5024104;28;19925;-75
2020/12/08 05:28:59;;;;;;;;;;;;;;;;;;5030881;28;19983;-75
2020/12/08 05:31:26;;;;;;;;;;;;;;;;;;5031649;28;21494;-75
2020/12/08 05:33:53;;;;;;;;;;;;;;;;;;5032116;28;19931;-75
2020/12/08 05:36:20;;;;;;;;;;;;;;;;;;5031026;28;19936;-75
2020/12/08 05:38:46;;;;;;;;;;;;;;;;;;5013037;28;20004;-75
2020/12/08 05:41:13;;;;;;;;;;;;;;;;;;5011531;28;20513;-75
2020/12/08 05:43:41;;;;;;;;;;;;;;;;;;5005370;28;19929;-75
2020/12/08 05:46:08;;;;;;;;;;;;;;;;;;5022651;28;20023;-75
2020/12/08 05:48:34;;;;;;;;;;;;;;;;;;5022941;28;20373;-75
2020/12/08 05:51:04;;;;;;;;;;;;;;;;;;5028626;28;19929;-75
2020/12/08 05:53:31;;;;;;;;;;;;;;;;;;5006986;28;19939;-76
2020/12/08 05:55:58;;;;;;;;;;;;;;;;;;5024547;28;20026;-77
2020/12/08 05:58:24;;;;;;;;;;;;;;;;;;5008624;28;20384;-78
2020/12/08 06:00:51;;;;;;;;;;;;;;;;;;5025875;28;20024;-79
2020/12/08 06:03:17;;;;;;;;;;;;;;;;;;5025595;28;20020;-76
2020/12/08 06:05:44;;;;;;;;;;;;;;;;;;5006094;28;20020;-77
2020/12/08 06:08:10;;;;;;;;;;;;;;;;;;5009036;28;20024;-80
2020/12/08 06:10:37;;;;;;;;;;;;;;;;;;5024782;28;20019;-77
2020/12/08 06:13:04;;;;;;;;;;;;;;;;;;5031058;23;19930;-78
2020/12/08 06:15:30;;;;;;;;;;;;;;;;;;5021222;28;20040;-80
2020/12/08 06:17:57;;;;;;;;;;;;;;;;;;5022107;28;20576;-78
2020/12/08 06:20:25;;;;;;;;;;;;;;;;;;5009212;28;19940;-78
2020/12/08 06:22:51;;;;;;;;;;;;;;;;;;5027137;28;19983;-78
2020/12/08 06:25:18;;;;;;;;;;;;;;;;;;5021584;28;20022;-78
2020/12/08 06:27:44;;;;;;;;;;;;;;;;;;5024747;28;19934;-77
2020/12/08 06:30:11;;;;;;;;;;;;;;;;;;5002287;28;20052;-77
2020/12/08 06:32:37;;;;;;;;;;;;;;;;;;5007321;28;20539;-79
2020/12/08 06:35:04;;;;;;;;;;;;;;;;;;5004887;28;20449;-78
2020/12/08 06:37:31;;;;;;;;;;;;;;;;;;5027954;28;20568;-78
2020/12/08 06:39:57;;;;;;;;;;;;;;;;;;5029029;28;19940;-76
2020/12/08 06:42:24;;;;;;;;;;;;;;;;;;5022172;28;19933;-76
2020/12/08 06:44:51;;;;;;;;;;;;;;;;;;5022133;28;19975;-76
2020/12/08 06:47:18;;;;;;;;;;;;;;;;;;5004143;28;19925;-77
2020/12/08 06:49:45;;;;;;;;;;;;;;;;;;5021628;28;20044;-77
2020/12/08 06:52:11;;;;;;;;;;;;;;;;;;5019069;28;20430;-77
2020/12/08 06:54:38;;;;;;;;;;;;;;;;;;5025987;28;20452;-77
2020/12/08 06:57:05;;;;;;;;;;;;;;;;;;5024040;28;19931;-77
2020/12/08 06:59:32;;;;;;;;;;;;;;;;;;5021294;28;20018;-77
2020/12/08 07:02:00;;;;;;;;;;;;;;;;;;5021639;28;20473;-76
2020/12/08 07:04:27;;;;;;;;;;;;;;;;;;5024675;28;20040;-77
2020/12/08 07:06:53;;;;;;;;;;;;;;;;;;5021749;28;19932;-77
2020/12/08 07:09:20;;;;;;;;;;;;;;;;;;5020912;28;19968;-77
2020/12/08 07:11:47;;;;;;;;;;;;;;;;;;5027264;28;20017;-77
2020/12/08 07:14:13;;;;;;;;;;;;;;;;;;5031467;28;20016;-78
2020/12/08 07:16:40;;;;;;;;;;;;;;;;;;5031202;28;20016;-77
2020/12/08 07:19:06;;;;;;;;;;;;;;;;;;5031569;28;20012;-77
2020/12/08 07:21:33;;;;;;;;;;;;;;;;;;5030841;28;20058;-77
2020/12/08 07:24:08;;;;;;;;;;;;;;;;;;5022361;28;20591;-77
2020/12/08 07:26:34;;;;;;;;;;;;;;;;;;5023015;28;20024;-77
2020/12/08 07:29:01;;;;;;;;;;;;;;;;;;5025283;28;20011;-76
2020/12/08 07:31:31;;;;;;;;;;;;;;;;;;5030640;28;20012;-76
2020/12/08 07:33:58;;;;;;;;;;;;;;;;;;5012364;28;20017;-77
2020/12/08 07:36:26;;;;;;;;;;;;;;;;;;5030643;28;19929;-76
2020/12/08 07:38:53;;;;;;;;;;;;;;;;;;5030041;28;20040;-76
2020/12/08 07:41:20;;;;;;;;;;;;;;;;;;5029802;28;20046;-76
2020/12/08 07:43:46;;;;;;;;;;;;;;;;;;5022192;28;19955;-76
2020/12/08 07:46:13;;;;;;;;;;;;;;;;;;5021727;28;20015;-77
2020/12/08 07:48:40;;;;;;;;;;;;;;;;;;5019864;28;19939;-76
2020/12/08 07:51:06;;;;;;;;;;;;;;;;;;5027046;28;20020;-76
2020/12/08 07:53:34;;;;;;;;;;;;;;;;;;5029836;28;20004;-77
2020/12/08 07:56:01;;;;;;;;;;;;;;;;;;5029796;28;20386;-76
2020/12/08 07:58:28;;;;;;;;;;;;;;;;;;5029560;28;20023;-77
2020/12/08 08:00:54;;;;;;;;;;;;;;;;;;5026276;28;19972;-77
2020/12/08 08:03:21;;;;;;;;;;;;;;;;;;5021619;28;19939;-77
2020/12/08 08:05:59;;;;;;;;;;;;;;;;;;5006463;28;19929;-78
2020/12/08 08:08:26;;;;;;;;;;;;;;;;;;5036831;28;20003;-78
2020/12/08 08:10:53;;;;;;;;;;;;;;;;;;5036118;28;19968;-78
2020/12/08 08:13:20;;;;;;;;;;;;;;;;;;5018552;28;19975;-77
2020/12/08 08:15:47;;;;;;;;;;;;;;;;;;5021643;28;20003;-77
2020/12/08 08:18:13;;;;;;;;;;;;;;;;;;5009531;28;20547;-78
2020/12/08 08:20:40;;;;;;;;;;;;;;;;;;5012823;28;20020;-78
2020/12/08 08:23:06;;;;;;;;;;;;;;;;;;5021514;28;19933;-78
2020/12/08 08:25:33;;;;;;;;;;;;;;;;;;5024990;28;20012;-77
2020/12/08 08:28:00;;;;;;;;;;;;;;;;;;5026008;28;20066;-77
2020/12/08 08:30:26;;;;;;;;;;;;;;;;;;4999144;28;19925;-77
2020/12/08 08:32:54;;;;;;;;;;;;;;;;;;5020076;28;21357;-76
2020/12/08 08:35:21;;;;;;;;;;;;;;;;;;5028224;28;20297;-77
2020/12/08 08:37:48;;;;;;;;;;;;;;;;;;5028761;28;20017;-77
2020/12/08 08:40:14;;;;;;;;;;;;;;;;;;5025576;28;20296;-77
2020/12/08 08:42:42;;;;;;;;;;;;;;;;;;5020106;28;19926;-77
2020/12/08 08:45:09;;;;;;;;;;;;;;;;;;5019192;28;20016;-77
2020/12/08 08:47:35;;;;;;;;;;;;;;;;;;5026424;28;19935;-77
2020/12/08 08:50:02;;;;;;;;;;;;;;;;;;5011410;28;19929;-77
2020/12/08 08:52:28;;;;;;;;;;;;;;;;;;5030222;28;20012;-77
2020/12/08 08:54:55;;;;;;;;;;;;;;;;;;5029973;28;19929;-77
2020/12/08 08:57:21;;;;;;;;;;;;;;;;;;5004931;28;19931;-78
2020/12/08 08:59:48;;;;;;;;;;;;;;;;;;5001988;28;19929;-77
2020/12/08 09:02:15;;;;;;;;;;;;;;;;;;5019880;28;19995;-78
2020/12/08 09:04:51;;;;;;;;;;;;;;;;;;5026224;28;19936;-78
2020/12/08 09:07:17;;;;;;;;;;;;;;;;;;5020613;28;19931;-78
2020/12/08 09:09:44;;;;;;;;;;;;;;;;;;5018617;28;19928;-77
2020/12/08 09:12:10;;;;;;;;;;;;;;;;;;5020600;28;19929;-77
2020/12/08 09:14:37;;;;;;;;;;;;;;;;;;5010924;28;19929;-78
2020/12/08 09:17:04;;;;;;;;;;;;;;;;;;5028862;28;19931;-78
2020/12/08 09:19:30;;;;;;;;;;;;;;;;;;5028955;28;20547;-78
2020/12/08 09:21:57;;;;;;;;;;;;;;;;;;5010990;28;20021;-77
2020/12/08 09:24:24;;;;;;;;;;;;;;;;;;4999313;28;19925;-78
2020/12/08 09:26:50;;;;;;;;;;;;;;;;;;5003465;28;19944;-77
2020/12/08 09:29:17;;;;;;;;;;;;;;;;;;5018527;28;20408;-78
2020/12/08 09:31:44;;;;;;;;;;;;;;;;;;5020798;28;19925;-77
2020/12/08 09:34:11;;;;;;;;;;;;;;;;;;5020859;28;20006;-78
2020/12/08 09:36:37;;;;;;;;;;;;;;;;;;5025265;28;19930;-77
2020/12/08 09:39:04;;;;;;;;;;;;;;;;;;5018767;28;19955;-78
2020/12/08 09:41:31;;;;;;;;;;;;;;;;;;5020124;28;20385;-78
2020/12/08 09:43:57;;;;;;;;;;;;;;;;;;5026045;28;20040;-78
2020/12/08 09:46:24;;;;;;;;;;;;;;;;;;5027850;28;20437;-77
2020/12/08 09:48:50;;;;;;;;;;;;;;;;;;5027664;28;19964;-77
2020/12/08 09:51:17;;;;;;;;;;;;;;;;;;5027729;28;19929;-77
2020/12/08 09:53:44;;;;;;;;;;;;;;;;;;5027684;28;19931;-78
2020/12/08 09:56:10;;;;;;;;;;;;;;;;;;5026840;28;19925;-77
2020/12/08 09:58:37;;;;;;;;;;;;;;;;;;5017129;28;20370;-78
2020/12/08 10:01:03;;;;;;;;;;;;;;;;;;5018647;28;20430;-78
2020/12/08 10:03:30;;;;;;;;;;;;;;;;;;5022315;28;19933;-77
2020/12/08 10:05:57;;;;;;;;;;;;;;;;;;5027817;28;19937;-77
2020/12/08 10:08:24;;;;;;;;;;;;;;;;;;5014035;28;20638;-77
2020/12/08 10:10:50;;;;;;;;;;;;;;;;;;5014709;28;19928;-77
2020/12/08 10:13:17;;;;;;;;;;;;;;;;;;5032257;28;19968;-77
2020/12/08 10:15:44;;;;;;;;;;;;;;;;;;5026605;28;20016;-77
2020/12/08 10:18:10;;;;;;;;;;;;;;;;;;5024550;28;20030;-78
2020/12/08 10:20:37;;;;;;;;;;;;;;;;;;5023784;28;20456;-78
2020/12/08 10:23:05;;;;;;;;;;;;;;;;;;5029651;28;19961;-77
2020/12/08 10:25:32;;;;;;;;;;;;;;;;;;5032072;28;19929;-78
2020/12/08 10:27:59;;;;;;;;;;;;;;;;;;5028007;28;20613;-78
2020/12/08 10:30:26;;;;;;;;;;;;;;;;;;5007536;28;20019;-78
2020/12/08 10:32:52;;;;;;;;;;;;;;;;;;5021877;28;19932;-77
2020/12/08 10:35:19;;;;;;;;;;;;;;;;;;5025157;28;20404;-78
2020/12/08 10:37:45;;;;;;;;;;;;;;;;;;5020861;28;19936;-78
2020/12/08 10:40:12;;;;;;;;;;;;;;;;;;5027898;28;19925;-78
2020/12/08 10:42:39;;;;;;;;;;;;;;;;;;5031748;28;20491;-77
2020/12/08 10:45:05;;;;;;;;;;;;;;;;;;5031225;28;20396;-77
2020/12/08 10:47:32;;;;;;;;;;;;;;;;;;5013373;28;20569;-77
2020/12/08 10:49:59;;;;;;;;;;;;;;;;;;5030911;28;19925;-79
2020/12/08 10:52:31;;;;;;;;;;;;;;;;;;5006913;28;19936;-78
2020/12/08 10:54:57;;;;;;;;;;;;;;;;;;5023166;28;19925;-78
2020/12/08 10:57:24;;;;;;;;;;;;;;;;;;5027397;28;19929;-77
2020/12/08 10:59:51;;;;;;;;;;;;;;;;;;5031084;28;19929;-77
2020/12/08 11:02:19;;;;;;;;;;;;;;;;;;5032182;28;19972;-77
2020/12/08 11:04:46;;;;;;;;;;;;;;;;;;5034304;28;19980;-78
2020/12/08 11:07:19;;;;;;;;;;;;;;;;;;5033346;28;20024;-78
2020/12/08 11:09:47;;;;;;;;;;;;;;;;;;5031933;28;19929;-78
2020/12/08 11:12:14;;;;;;;;;;;;;;;;;;5024347;28;20016;-78
2020/12/08 11:14:41;;;;;;;;;;;;;;;;;;5022305;28;19975;-78
2020/12/08 11:17:07;;;;;;;;;;;;;;;;;;5020129;28;19965;-77
2020/12/08 11:19:35;;;;;;;;;;;;;;;;;;5027645;28;19936;-77
2020/12/08 11:22:02;;;;;;;;;;;;;;;;;;5029267;28;19929;-77
2020/12/08 11:24:36;;;;;;;;;;;;;;;;;;5013901;28;20018;-78
2020/12/08 11:27:03;;;;;;;;;;;;;;;;;;5012045;28;20474;-77
2020/12/08 11:29:30;;;;;;;;;;;;;;;;;;5029585;28;19929;-77
2020/12/08 11:31:56;;;;;;;;;;;;;;;;;;5025723;28;19933;-78
2020/12/08 11:34:23;;;;;;;;;;;;;;;;;;5022012;28;19935;-78
2020/12/08 11:36:49;;;;;;;;;;;;;;;;;;5023542;28;19982;-77
2020/12/08 11:39:16;;;;;;;;;;;;;;;;;;5031870;28;20011;-78
2020/12/08 11:41:43;;;;;;;;;;;;;;;;;;5038989;28;20016;-77
2020/12/08 11:44:11;;;;;;;;;;;;;;;;;;5021250;28;20020;-78
2020/12/08 11:46:38;;;;;;;;;;;;;;;;;;5022678;28;20446;-78
2020/12/08 11:49:05;;;;;;;;;;;;;;;;;;5024281;28;19936;-77
2020/12/08 11:51:32;;;;;;;;;;;;;;;;;;5029487;28;20381;-77
2020/12/08 11:53:59;;;;;;;;;;;;;;;;;;5030460;28;19925;-78
2020/12/08 11:56:26;;;;;;;;;;;;;;;;;;5029507;28;19929;-78
2020/12/08 11:58:52;;;;;;;;;;;;;;;;;;5011311;28;19967;-77
2020/12/08 12:01:19;;;;;;;;;;;;;;;;;;5027007;28;19962;-78
2020/12/08 12:03:46;;;;;;;;;;;;;;;;;;5021264;28;19937;-77
2020/12/08 12:06:13;;;;;;;;;;;;;;;;;;5020056;28;20035;-77
2020/12/08 12:08:39;;;;;;;;;;;;;;;;;;5020911;28;19964;-78
2020/12/08 12:11:06;;;;;;;;;;;;;;;;;;5023129;28;19925;-78
2020/12/08 12:13:32;;;;;;;;;;;;;;;;;;5019613;28;19933;-78
2020/12/08 12:15:59;;;;;;;;;;;;;;;;;;5027905;28;19925;-78
2020/12/08 12:18:26;;;;;;;;;;;;;;;;;;5011648;28;19929;-78
2020/12/08 12:20:52;;;;;;;;;;;;;;;;;;5030202;28;19932;-77
2020/12/08 12:23:19;;;;;;;;;;;;;;;;;;5029586;28;20015;-77
2020/12/08 12:25:45;;;;;;;;;;;;;;;;;;5029675;28;19935;-77
2020/12/08 12:28:12;;;;;;;;;;;;;;;;;;5020436;28;20015;-78
2020/12/08 12:30:38;;;;;;;;;;;;;;;;;;5017054;28;19936;-77
2020/12/08 12:33:05;;;;;;;;;;;;;;;;;;5025656;28;20010;-78
2020/12/08 12:35:32;;;;;;;;;;;;;;;;;;5028172;28;20689;-78
2020/12/08 12:37:58;;;;;;;;;;;;;;;;;;5028312;28;19932;-76
2020/12/08 12:40:25;;;;;;;;;;;;;;;;;;5027886;28;20022;-78
2020/12/08 12:42:54;;;;;;;;;;;;;;;;;;5024869;28;20409;-78
2020/12/08 12:45:20;;;;;;;;;;;;;;;;;;5021141;28;19929;-77
2020/12/08 12:47:47;;;;;;;;;;;;;;;;;;5000657;28;19939;-77
2020/12/08 12:50:14;;;;;;;;;;;;;;;;;;5023672;28;20025;-77
2020/12/08 12:52:40;;;;;;;;;;;;;;;;;;5026824;28;19933;-78
2020/12/08 12:55:07;;;;;;;;;;;;;;;;;;5017382;28;19931;-77
2020/12/08 12:57:33;;;;;;;;;;;;;;;;;;5021277;28;19963;-77
2020/12/08 13:00:00;;;;;;;;;;;;;;;;;;5028129;28;20056;-77
2020/12/08 13:02:27;;;;;;;;;;;;;;;;;;5027651;28;20007;-78
2020/12/08 13:04:53;;;;;;;;;;;;;;;;;;5028207;28;19956;-77
2020/12/08 13:07:20;;;;;;;;;;;;;;;;;;5027362;28;20631;-77
2020/12/08 13:09:47;;;;;;;;;;;;;;;;;;5027100;28;19929;-78
2020/12/08 13:12:13;;;;;;;;;;;;;;;;;;5028722;28;20019;-77
2020/12/08 13:14:40;;;;;;;;;;;;;;;;;;5019036;28;20020;-77
2020/12/08 13:17:07;;;;;;;;;;;;;;;;;;5001680;28;19925;-77
2020/12/08 13:19:34;;;;;;;;;;;;;;;;;;5019397;28;19932;-77
2020/12/08 13:22:06;;;;;;;;;;;;;;;;;;5027209;28;19925;-77
2020/12/08 13:24:33;;;;;;;;;;;;;;;;;;5020483;28;19933;-77
2020/12/08 13:27:00;;;;;;;;;;;;;;;;;;5017595;28;19929;-78
2020/12/08 13:29:26;;;;;;;;;;;;;;;;;;5024225;28;20008;-77
2020/12/08 13:31:53;;;;;;;;;;;;;;;;;;5027141;28;20032;-77
2020/12/08 13:34:19;;;;;;;;;;;;;;;;;;5027665;28;20012;-77
2020/12/08 13:36:46;;;;;;;;;;;;;;;;;;5026744;28;20568;-77
2020/12/08 13:39:13;;;;;;;;;;;;;;;;;;5025590;28;20577;-76
2020/12/08 13:41:40;;;;;;;;;;;;;;;;;;5024063;28;19976;-77
2020/12/08 13:44:06;;;;;;;;;;;;;;;;;;5023178;28;20365;-76
2020/12/08 13:46:33;;;;;;;;;;;;;;;;;;5026485;28;20016;-76
2020/12/08 13:48:59;;;;;;;;;;;;;;;;;;5030431;28;20381;-77
2020/12/08 13:51:26;;;;;;;;;;;;;;;;;;5011778;28;19936;-77
2020/12/08 13:53:53;;;;;;;;;;;;;;;;;;5023359;28;20318;-77
2020/12/08 13:56:22;;;;;;;;;;;;;;;;;;5004016;28;20000;-77
2020/12/08 13:58:50;;;;;;;;;;;;;;;;;;5026079;28;20043;-77
2020/12/08 14:01:18;;;;;;;;;;;;;;;;;;5031119;28;19980;-78
2020/12/08 14:03:45;;;;;;;;;;;;;;;;;;5031487;28;20745;-78
2020/12/08 14:06:11;;;;;;;;;;;;;;;;;;5031717;28;19929;-77
2020/12/08 14:08:38;;;;;;;;;;;;;;;;;;5030798;28;20378;-77
2020/12/08 14:11:05;;;;;;;;;;;;;;;;;;5025566;28;19960;-77
2020/12/08 14:13:31;;;;;;;;;;;;;;;;;;5023011;28;19933;-77
2020/12/08 14:15:58;;;;;;;;;;;;;;;;;;5022901;28;20449;-78
2020/12/08 14:18:25;;;;;;;;;;;;;;;;;;5025350;28;19931;-78
2020/12/08 14:20:51;;;;;;;;;;;;;;;;;;5023305;28;19999;-77
2020/12/08 14:23:18;;;;;;;;;;;;;;;;;;5024709;28;19972;-78
2020/12/08 14:25:46;;;;;;;;;;;;;;;;;;5028907;28;19929;-78
2020/12/08 14:28:13;;;;;;;;;;;;;;;;;;5028183;28;20012;-78
2020/12/08 14:30:39;;;;;;;;;;;;;;;;;;5004808;28;20021;-77
2020/12/08 14:33:06;;;;;;;;;;;;;;;;;;5024527;28;19984;-78
2020/12/08 14:35:33;;;;;;;;;;;;;;;;;;5030988;28;19968;-77
2020/12/08 14:37:59;;;;;;;;;;;;;;;;;;5011672;28;20016;-77
2020/12/08 14:40:26;;;;;;;;;;;;;;;;;;5023590;28;20034;-77
2020/12/08 14:42:55;;;;;;;;;;;;;;;;;;5022366;28;20644;-78
2020/12/08 14:45:22;;;;;;;;;;;;;;;;;;5005475;28;19929;-78
2020/12/08 14:47:48;;;;;;;;;;;;;;;;;;5025393;28;20577;-77
2020/12/08 14:50:15;;;;;;;;;;;;;;;;;;5010129;28;19990;-78
2020/12/08 14:52:42;;;;;;;;;;;;;;;;;;4992431;28;20679;-77
2020/12/08 14:55:08;;;;;;;;;;;;;;;;;;4992744;28;19929;-77
2020/12/08 14:57:35;;;;;;;;;;;;;;;;;;5017188;28;19929;-77
2020/12/08 15:00:01;;;;;;;;;;;;;;;;;;5020216;28;20038;-77
2020/12/08 15:02:28;;;;;;;;;;;;;;;;;;5020825;28;20012;-77
2020/12/08 15:04:55;;;;;;;;;;;;;;;;;;5027497;28;20653;-78
2020/12/08 15:07:23;;;;;;;;;;;;;;;;;;5022608;28;20574;-77
2020/12/08 15:09:49;;;;;;;;;;;;;;;;;;5021721;28;19979;-77
2020/12/08 15:12:16;;;;;;;;;;;;;;;;;;5016308;28;19926;-77
2020/12/08 15:14:42;;;;;;;;;;;;;;;;;;5021353;28;20012;-77
2020/12/08 15:17:10;;;;;;;;;;;;;;;;;;5022919;28;19929;-77
2020/12/08 15:19:43;;;;;;;;;;;;;;;;;;5022172;28;19925;-76
2020/12/08 15:22:10;;;;;;;;;;;;;;;;;;5027479;28;19928;-77
2020/12/08 15:24:36;;;;;;;;;;;;;;;;;;5029694;28;20220;-76
2020/12/08 15:27:04;;;;;;;;;;;;;;;;;;5029543;28;20251;-77
2020/12/08 15:29:30;;;;;;;;;;;;;;;;;;5029945;28;19987;-78
2020/12/08 15:31:57;;;;;;;;;;;;;;;;;;5029640;28;20403;-77
2020/12/08 15:34:23;;;;;;;;;;;;;;;;;;5029138;28;19925;-76
2020/12/08 15:36:50;;;;;;;;;;;;;;;;;;5026064;28;20044;-76
2020/12/08 15:39:17;;;;;;;;;;;;;;;;;;5022528;28;20408;-77
2020/12/08 15:41:43;;;;;;;;;;;;;;;;;;5001568;28;20024;-76
2020/12/08 15:44:10;;;;;;;;;;;;;;;;;;5011497;28;20020;-77
2020/12/08 15:46:36;;;;;;;;;;;;;;;;;;5011132;28;20396;-78
2020/12/08 15:49:03;;;;;;;;;;;;;;;;;;5028300;28;20020;-76
2020/12/08 15:51:30;;;;;;;;;;;;;;;;;;5028883;28;19929;-77
2020/12/08 15:53:56;;;;;;;;;;;;;;;;;;5028700;28;20373;-78
2020/12/08 15:56:23;;;;;;;;;;;;;;;;;;5028625;28;20328;-77
2020/12/08 15:58:49;;;;;;;;;;;;;;;;;;5009632;28;19968;-77
2020/12/08 16:01:17;;;;;;;;;;;;;;;;;;5002567;28;20507;-77
2020/12/08 16:03:43;;;;;;;;;;;;;;;;;;5019210;28;20008;-77
2020/12/08 16:06:10;;;;;;;;;;;;;;;;;;5022065;28;20586;-80
2020/12/08 16:08:37;;;;;;;;;;;;;;;;;;5021894;28;20680;-76
2020/12/08 16:11:03;;;;;;;;;;;;;;;;;;5022194;28;19964;-76
2020/12/08 16:13:30;;;;;;;;;;;;;;;;;;5017863;28;19929;-77
2020/12/08 16:15:57;;;;;;;;;;;;;;;;;;5020311;28;19925;-76
2020/12/08 16:18:24;;;;;;;;;;;;;;;;;;5019058;28;19935;-78
2020/12/08 16:20:52;;;;;;;;;;;;;;;;;;5019367;28;20394;-78
2020/12/08 16:23:24;;;;;;;;;;;;;;;;;;5020245;28;19932;-78
2020/12/08 16:25:50;;;;;;;;;;;;;;;;;;5005502;28;20028;-78
2020/12/08 16:28:17;;;;;;;;;;;;;;;;;;5023760;28;19925;-78
2020/12/08 16:30:44;;;;;;;;;;;;;;;;;;5022105;28;20043;-78
2020/12/08 16:33:12;;;;;;;;;;;;;;;;;;5018673;28;20016;-78
2020/12/08 16:35:38;;;;;;;;;;;;;;;;;;5021631;28;19940;-81
2020/12/08 16:38:05;;;;;;;;;;;;;;;;;;5001769;28;19933;-77
2020/12/08 16:40:33;;;;;;;;;;;;;;;;;;5021287;28;19933;-77
2020/12/08 16:43:00;;;;;;;;;;;;;;;;;;5020305;28;20039;-76